X  Chiuso Dati meteorologici dell'aviazione (METAR)     LIMC Malpensa International Airport
Temperatura
23°C Temperatura
14°C Punto di rugiada
57% Umidità



Vento
3 KM/O
2 MPH
1 M/S
2 KTS



Calmo
Nord
Condizioni attuali

Nuvole per lo più sparse Nuvole per lo più sparse
Pressione 1026.92 (hPa) - 30.32 (inHg)
Visibilità 5 (miglio) - 8 (km)
Aeroporto
Codice-Aeroporto LIMC

Posizione: Malpensa International Airport
Distanza: 50 (km)

Metar:
LIMC 061450Z VRB02KT 8000 SCT040 23/14 Q1027 NOSIG

Ore: 06-10-2022 16:50 CEST